Melrose, Minnesota
Current Conditions -  °F | °C
As of 1:33 AM on Thursday 18 Dec 2014 (Local Time) from KD39 Reporting Station
Clear Clear  
Wind Chill:   Ceiling: Unl
Heat Index:   Visibility: 10mi
Dew Point:   Wind: 0mph
Humidity: 89%   Direction: NA
Pressure: 30.31"   Gusts: NA
Location:  45.67°N, 94.81°W
Report Text: KD39 180733Z AUTO 00000KT 10SM CLR M15/M16 A3031 RMK AO2 T11461160
Loading
Personal Weather Stations






























Interactive Weather Map New forecast layout! Learn more

10-Day Weather Forecast

Advertisements
Track Severe Weather on mobile